sensor_id;sensor_type;location;lat;lon;timestamp;P1;durP1;ratioP1;P2;durP2;ratioP2
69410;SDS011;56604;48.652;9.194;2022-11-18T00:00:54;1.40;;;1.13;;
69410;SDS011;56604;48.652;9.194;2022-11-18T00:03:19;1.20;;;1.20;;
69410;SDS011;56604;48.652;9.194;2022-11-18T00:05:56;2.43;;;0.90;;
69410;SDS011;56604;48.652;9.194;2022-11-18T00:08:22;3.47;;;1.20;;
69410;SDS011;56604;48.652;9.194;2022-11-18T00:10:48;0.70;;;0.70;;
69410;SDS011;56604;48.652;9.194;2022-11-18T00:13:14;1.10;;;1.10;;
69410;SDS011;56604;48.652;9.194;2022-11-18T00:15:59;2.50;;;1.00;;
69410;SDS011;56604;48.652;9.194;2022-11-18T00:18:28;0.60;;;0.60;;
69410;SDS011;56604;48.652;9.194;2022-11-18T00:20:54;1.23;;;1.13;;
69410;SDS011;56604;48.652;9.194;2022-11-18T00:23:19;0.80;;;0.80;;
69410;SDS011;56604;48.652;9.194;2022-11-18T00:25:45;0.70;;;0.70;;
69410;SDS011;56604;48.652;9.194;2022-11-18T00:28:10;1.67;;;1.00;;
69410;SDS011;56604;48.652;9.194;2022-11-18T00:30:35;1.07;;;0.90;;
69410;SDS011;56604;48.652;9.194;2022-11-18T00:33:01;0.60;;;0.60;;
69410;SDS011;56604;48.652;9.194;2022-11-18T00:35:26;0.60;;;0.60;;
69410;SDS011;56604;48.652;9.194;2022-11-18T00:37:51;0.60;;;0.60;;
69410;SDS011;56604;48.652;9.194;2022-11-18T00:40:17;1.57;;;0.93;;
69410;SDS011;56604;48.652;9.194;2022-11-18T00:42:42;0.87;;;0.60;;
69410;SDS011;56604;48.652;9.194;2022-11-18T00:45:17;0.60;;;0.60;;
69410;SDS011;56604;48.652;9.194;2022-11-18T00:47:44;0.60;;;0.60;;
69410;SDS011;56604;48.652;9.194;2022-11-18T00:50:09;0.70;;;0.70;;
69410;SDS011;56604;48.652;9.194;2022-11-18T00:52:35;0.60;;;0.60;;
69410;SDS011;56604;48.652;9.194;2022-11-18T00:55:00;0.63;;;0.63;;
69410;SDS011;56604;48.652;9.194;2022-11-18T00:57:25;0.70;;;0.70;;
69410;SDS011;56604;48.652;9.194;2022-11-18T00:59:51;0.70;;;0.70;;
69410;SDS011;56604;48.652;9.194;2022-11-18T01:02:16;3.40;;;0.57;;
69410;SDS011;56604;48.652;9.194;2022-11-18T01:04:42;1.80;;;0.70;;
69410;SDS011;56604;48.652;9.194;2022-11-18T01:07:07;2.83;;;0.70;;
69410;SDS011;56604;48.652;9.194;2022-11-18T01:09:32;0.60;;;0.60;;
69410;SDS011;56604;48.652;9.194;2022-11-18T01:11:58;0.50;;;0.50;;
69410;SDS011;56604;48.652;9.194;2022-11-18T01:14:42;1.13;;;0.60;;
69410;SDS011;56604;48.652;9.194;2022-11-18T01:17:07;1.60;;;0.60;;
69410;SDS011;56604;48.652;9.194;2022-11-18T01:19:32;2.40;;;0.50;;
69410;SDS011;56604;48.652;9.194;2022-11-18T01:21:58;0.57;;;0.57;;
69410;SDS011;56604;48.652;9.194;2022-11-18T01:24:27;0.60;;;0.60;;
69410;SDS011;56604;48.652;9.194;2022-11-18T01:26:53;3.37;;;0.70;;
69410;SDS011;56604;48.652;9.194;2022-11-18T01:29:19;1.03;;;0.70;;
69410;SDS011;56604;48.652;9.194;2022-11-18T01:31:44;1.00;;;0.50;;
69410;SDS011;56604;48.652;9.194;2022-11-18T01:34:09;0.50;;;0.50;;
69410;SDS011;56604;48.652;9.194;2022-11-18T01:36:35;0.50;;;0.50;;
69410;SDS011;56604;48.652;9.194;2022-11-18T01:39:00;0.60;;;0.60;;
69410;SDS011;56604;48.652;9.194;2022-11-18T01:41:25;0.60;;;0.60;;
69410;SDS011;56604;48.652;9.194;2022-11-18T01:46:27;0.50;;;0.50;;
69410;SDS011;56604;48.652;9.194;2022-11-18T01:48:56;1.43;;;0.60;;
69410;SDS011;56604;48.652;9.194;2022-11-18T01:51:30;2.97;;;1.00;;
69410;SDS011;56604;48.652;9.194;2022-11-18T01:54:02;1.10;;;1.10;;
69410;SDS011;56604;48.652;9.194;2022-11-18T01:56:35;0.70;;;0.70;;
69410;SDS011;56604;48.652;9.194;2022-11-18T01:59:05;0.60;;;0.60;;
69410;SDS011;56604;48.652;9.194;2022-11-18T02:01:35;0.87;;;0.87;;
69410;SDS011;56604;48.652;9.194;2022-11-18T02:04:00;0.80;;;0.80;;
69410;SDS011;56604;48.652;9.194;2022-11-18T02:06:26;1.30;;;1.30;;
69410;SDS011;56604;48.652;9.194;2022-11-18T02:08:51;17.03;;;3.03;;
69410;SDS011;56604;48.652;9.194;2022-11-18T02:11:18;0.90;;;0.90;;
69410;SDS011;56604;48.652;9.194;2022-11-18T02:14:02;3.87;;;0.87;;
69410;SDS011;56604;48.652;9.194;2022-11-18T02:30:33;1.80;;;0.80;;
69410;SDS011;56604;48.652;9.194;2022-11-18T02:33:16;0.87;;;0.87;;
69410;SDS011;56604;48.652;9.194;2022-11-18T02:36:38;0.60;;;0.60;;
69410;SDS011;56604;48.652;9.194;2022-11-18T02:39:00;0.60;;;0.60;;
69410;SDS011;56604;48.652;9.194;2022-11-18T02:41:31;0.50;;;0.50;;
69410;SDS011;56604;48.652;9.194;2022-11-18T02:44:01;0.50;;;0.50;;
69410;SDS011;56604;48.652;9.194;2022-11-18T02:46:32;1.23;;;0.50;;
69410;SDS011;56604;48.652;9.194;2022-11-18T02:49:03;0.70;;;0.60;;
69410;SDS011;56604;48.652;9.194;2022-11-18T02:51:35;0.60;;;0.60;;
69410;SDS011;56604;48.652;9.194;2022-11-18T02:54:05;0.73;;;0.50;;
69410;SDS011;56604;48.652;9.194;2022-11-18T02:56:32;2.67;;;0.60;;
69410;SDS011;56604;48.652;9.194;2022-11-18T02:58:59;1.03;;;0.50;;
69410;SDS011;56604;48.652;9.194;2022-11-18T03:01:25;0.50;;;0.50;;
69410;SDS011;56604;48.652;9.194;2022-11-18T03:03:54;0.53;;;0.53;;
69410;SDS011;56604;48.652;9.194;2022-11-18T03:06:36;0.50;;;0.50;;
69410;SDS011;56604;48.652;9.194;2022-11-18T03:14:22;0.60;;;0.60;;
69410;SDS011;56604;48.652;9.194;2022-11-18T03:17:12;0.50;;;0.50;;
69410;SDS011;56604;48.652;9.194;2022-11-18T03:25:42;1.50;;;0.60;;
69410;SDS011;56604;48.652;9.194;2022-11-18T03:30:44;1.27;;;0.50;;
69410;SDS011;56604;48.652;9.194;2022-11-18T03:33:32;0.50;;;0.50;;
69410;SDS011;56604;48.652;9.194;2022-11-18T03:36:02;0.40;;;0.40;;
69410;SDS011;56604;48.652;9.194;2022-11-18T03:38:32;0.50;;;0.50;;
69410;SDS011;56604;48.652;9.194;2022-11-18T03:41:02;0.53;;;0.53;;
69410;SDS011;56604;48.652;9.194;2022-11-18T03:43:33;0.50;;;0.50;;
69410;SDS011;56604;48.652;9.194;2022-11-18T03:46:09;0.50;;;0.50;;
69410;SDS011;56604;48.652;9.194;2022-11-18T03:49:10;0.97;;;0.53;;
69410;SDS011;56604;48.652;9.194;2022-11-18T03:51:41;0.50;;;0.50;;
69410;SDS011;56604;48.652;9.194;2022-11-18T03:54:13;1.13;;;0.50;;
69410;SDS011;56604;48.652;9.194;2022-11-18T03:56:46;0.40;;;0.40;;
69410;SDS011;56604;48.652;9.194;2022-11-18T03:59:20;0.40;;;0.40;;
69410;SDS011;56604;48.652;9.194;2022-11-18T04:01:51;0.77;;;0.60;;
69410;SDS011;56604;48.652;9.194;2022-11-18T04:04:17;0.60;;;0.60;;
69410;SDS011;56604;48.652;9.194;2022-11-18T04:06:47;0.50;;;0.50;;
69410;SDS011;56604;48.652;9.194;2022-11-18T04:09:29;0.80;;;0.60;;
69410;SDS011;56604;48.652;9.194;2022-11-18T04:12:06;0.50;;;0.50;;
69410;SDS011;56604;48.652;9.194;2022-11-18T04:14:36;0.50;;;0.50;;
69410;SDS011;56604;48.652;9.194;2022-11-18T04:19:39;1.03;;;0.50;;
69410;SDS011;56604;48.652;9.194;2022-11-18T04:22:05;1.33;;;0.60;;
69410;SDS011;56604;48.652;9.194;2022-11-18T04:24:31;0.50;;;0.50;;
69410;SDS011;56604;48.652;9.194;2022-11-18T04:26:56;0.60;;;0.60;;
69410;SDS011;56604;48.652;9.194;2022-11-18T04:29:21;0.70;;;0.70;;
69410;SDS011;56604;48.652;9.194;2022-11-18T04:31:47;0.60;;;0.60;;
69410;SDS011;56604;48.652;9.194;2022-11-18T04:34:12;0.60;;;0.53;;
69410;SDS011;56604;48.652;9.194;2022-11-18T04:36:38;1.60;;;0.70;;
69410;SDS011;56604;48.652;9.194;2022-11-18T04:39:03;0.67;;;0.67;;
69410;SDS011;56604;48.652;9.194;2022-11-18T04:41:29;0.80;;;0.80;;
69410;SDS011;56604;48.652;9.194;2022-11-18T04:44:13;0.70;;;0.70;;
69410;SDS011;56604;48.652;9.194;2022-11-18T04:46:39;0.97;;;0.80;;
69410;SDS011;56604;48.652;9.194;2022-11-18T04:49:08;0.87;;;0.87;;
69410;SDS011;56604;48.652;9.194;2022-11-18T04:51:35;0.80;;;0.80;;
69410;SDS011;56604;48.652;9.194;2022-11-18T04:54:01;0.70;;;0.60;;
69410;SDS011;56604;48.652;9.194;2022-11-18T04:56:27;3.10;;;0.70;;
69410;SDS011;56604;48.652;9.194;2022-11-18T04:58:53;0.70;;;0.70;;
69410;SDS011;56604;48.652;9.194;2022-11-18T05:01:18;0.83;;;0.70;;
69410;SDS011;56604;48.652;9.194;2022-11-18T05:03:43;1.83;;;0.90;;
69410;SDS011;56604;48.652;9.194;2022-11-18T05:06:08;0.90;;;0.90;;
69410;SDS011;56604;48.652;9.194;2022-11-18T05:08:34;0.90;;;0.90;;
69410;SDS011;56604;48.652;9.194;2022-11-18T05:10:59;0.93;;;0.93;;
69410;SDS011;56604;48.652;9.194;2022-11-18T05:13:43;1.13;;;0.87;;
69410;SDS011;56604;48.652;9.194;2022-11-18T05:16:08;2.50;;;1.00;;
69410;SDS011;56604;48.652;9.194;2022-11-18T05:18:33;0.80;;;0.80;;
69410;SDS011;56604;48.652;9.194;2022-11-18T05:21:03;0.70;;;0.70;;
69410;SDS011;56604;48.652;9.194;2022-11-18T05:23:29;0.83;;;0.83;;
69410;SDS011;56604;48.652;9.194;2022-11-18T05:25:54;1.43;;;0.80;;
69410;SDS011;56604;48.652;9.194;2022-11-18T05:28:20;0.80;;;0.80;;
69410;SDS011;56604;48.652;9.194;2022-11-18T05:30:45;1.07;;;1.07;;
69410;SDS011;56604;48.652;9.194;2022-11-18T05:33:10;0.90;;;0.90;;
69410;SDS011;56604;48.652;9.194;2022-11-18T05:35:36;0.80;;;0.80;;
69410;SDS011;56604;48.652;9.194;2022-11-18T05:38:01;0.80;;;0.80;;
69410;SDS011;56604;48.652;9.194;2022-11-18T05:40:26;1.30;;;1.10;;
69410;SDS011;56604;48.652;9.194;2022-11-18T05:42:52;1.30;;;1.30;;
69410;SDS011;56604;48.652;9.194;2022-11-18T05:45:35;1.33;;;1.33;;
69410;SDS011;56604;48.652;9.194;2022-11-18T05:48:02;1.93;;;1.83;;
69410;SDS011;56604;48.652;9.194;2022-11-18T05:50:29;3.50;;;1.97;;
69410;SDS011;56604;48.652;9.194;2022-11-18T05:52:56;1.37;;;1.03;;
69410;SDS011;56604;48.652;9.194;2022-11-18T05:55:22;1.00;;;1.00;;
69410;SDS011;56604;48.652;9.194;2022-11-18T05:57:51;0.70;;;0.70;;
69410;SDS011;56604;48.652;9.194;2022-11-18T06:00:16;7.33;;;0.70;;
69410;SDS011;56604;48.652;9.194;2022-11-18T06:02:42;0.80;;;0.80;;
69410;SDS011;56604;48.652;9.194;2022-11-18T06:05:10;0.80;;;0.80;;
69410;SDS011;56604;48.652;9.194;2022-11-18T06:07:37;0.70;;;0.70;;
69410;SDS011;56604;48.652;9.194;2022-11-18T06:10:06;0.73;;;0.73;;
69410;SDS011;56604;48.652;9.194;2022-11-18T06:12:35;0.60;;;0.60;;
69410;SDS011;56604;48.652;9.194;2022-11-18T06:15:11;0.80;;;0.80;;
69410;SDS011;56604;48.652;9.194;2022-11-18T06:17:45;0.60;;;0.60;;
69410;SDS011;56604;48.652;9.194;2022-11-18T06:20:16;0.63;;;0.63;;
69410;SDS011;56604;48.652;9.194;2022-11-18T06:22:43;0.97;;;0.97;;
69410;SDS011;56604;48.652;9.194;2022-11-18T06:25:08;0.80;;;0.80;;
69410;SDS011;56604;48.652;9.194;2022-11-18T06:27:34;0.70;;;0.70;;
69410;SDS011;56604;48.652;9.194;2022-11-18T06:29:59;0.80;;;0.80;;
69410;SDS011;56604;48.652;9.194;2022-11-18T06:32:24;0.80;;;0.80;;
69410;SDS011;56604;48.652;9.194;2022-11-18T06:34:50;0.80;;;0.80;;
69410;SDS011;56604;48.652;9.194;2022-11-18T06:37:16;1.40;;;0.90;;
69410;SDS011;56604;48.652;9.194;2022-11-18T06:39:44;1.20;;;1.20;;
69410;SDS011;56604;48.652;9.194;2022-11-18T06:42:10;1.27;;;1.27;;
69410;SDS011;56604;48.652;9.194;2022-11-18T06:44:35;1.37;;;1.37;;
69410;SDS011;56604;48.652;9.194;2022-11-18T06:47:02;1.23;;;1.23;;
69410;SDS011;56604;48.652;9.194;2022-11-18T06:49:27;1.47;;;1.33;;
69410;SDS011;56604;48.652;9.194;2022-11-18T06:51:53;3.90;;;1.10;;
69410;SDS011;56604;48.652;9.194;2022-11-18T06:54:19;1.13;;;1.13;;
69410;SDS011;56604;48.652;9.194;2022-11-18T06:56:44;1.27;;;1.27;;
69410;SDS011;56604;48.652;9.194;2022-11-18T06:59:10;1.33;;;1.20;;
69410;SDS011;56604;48.652;9.194;2022-11-18T07:01:36;1.30;;;1.20;;
69410;SDS011;56604;48.652;9.194;2022-11-18T07:04:04;1.50;;;1.10;;
69410;SDS011;56604;48.652;9.194;2022-11-18T07:06:31;0.80;;;0.80;;
69410;SDS011;56604;48.652;9.194;2022-11-18T07:08:59;0.73;;;0.73;;
69410;SDS011;56604;48.652;9.194;2022-11-18T07:11:26;2.20;;;0.70;;
69410;SDS011;56604;48.652;9.194;2022-11-18T07:13:52;0.63;;;0.63;;
69410;SDS011;56604;48.652;9.194;2022-11-18T07:16:18;2.60;;;0.90;;
69410;SDS011;56604;48.652;9.194;2022-11-18T07:18:48;0.77;;;0.77;;
69410;SDS011;56604;48.652;9.194;2022-11-18T07:21:18;1.00;;;0.80;;
69410;SDS011;56604;48.652;9.194;2022-11-18T07:23:48;0.83;;;0.83;;
69410;SDS011;56604;48.652;9.194;2022-11-18T07:26:14;1.10;;;1.00;;
69410;SDS011;56604;48.652;9.194;2022-11-18T07:28:41;1.27;;;0.77;;
69410;SDS011;56604;48.652;9.194;2022-11-18T07:31:09;1.07;;;0.70;;
69410;SDS011;56604;48.652;9.194;2022-11-18T07:33:36;0.90;;;0.90;;
69410;SDS011;56604;48.652;9.194;2022-11-18T07:36:06;2.77;;;0.80;;
69410;SDS011;56604;48.652;9.194;2022-11-18T07:38:33;1.27;;;0.70;;
69410;SDS011;56604;48.652;9.194;2022-11-18T07:41:09;1.80;;;1.00;;
69410;SDS011;56604;48.652;9.194;2022-11-18T07:43:45;0.70;;;0.70;;
69410;SDS011;56604;48.652;9.194;2022-11-18T07:46:22;0.90;;;0.90;;
69410;SDS011;56604;48.652;9.194;2022-11-18T07:48:49;2.10;;;1.10;;
69410;SDS011;56604;48.652;9.194;2022-11-18T07:51:16;0.77;;;0.77;;
69410;SDS011;56604;48.652;9.194;2022-11-18T07:53:43;0.90;;;0.90;;
69410;SDS011;56604;48.652;9.194;2022-11-18T07:56:09;1.93;;;1.17;;
69410;SDS011;56604;48.652;9.194;2022-11-18T07:58:35;0.73;;;0.73;;
69410;SDS011;56604;48.652;9.194;2022-11-18T08:03:33;0.60;;;0.60;;
69410;SDS011;56604;48.652;9.194;2022-11-18T08:05:59;0.50;;;0.50;;
69410;SDS011;56604;48.652;9.194;2022-11-18T08:08:25;0.80;;;0.80;;
69410;SDS011;56604;48.652;9.194;2022-11-18T08:10:54;0.60;;;0.60;;
69410;SDS011;56604;48.652;9.194;2022-11-18T08:13:20;0.90;;;0.90;;
69410;SDS011;56604;48.652;9.194;2022-11-18T08:15:46;0.53;;;0.53;;
69410;SDS011;56604;48.652;9.194;2022-11-18T08:18:11;1.23;;;0.77;;
69410;SDS011;56604;48.652;9.194;2022-11-18T08:20:36;1.23;;;0.70;;
69410;SDS011;56604;48.652;9.194;2022-11-18T08:23:02;1.40;;;0.80;;
69410;SDS011;56604;48.652;9.194;2022-11-18T08:25:27;0.60;;;0.60;;
69410;SDS011;56604;48.652;9.194;2022-11-18T08:27:53;0.70;;;0.70;;
69410;SDS011;56604;48.652;9.194;2022-11-18T08:30:18;0.70;;;0.70;;
69410;SDS011;56604;48.652;9.194;2022-11-18T08:32:44;0.80;;;0.70;;
69410;SDS011;56604;48.652;9.194;2022-11-18T08:35:09;0.80;;;0.80;;
69410;SDS011;56604;48.652;9.194;2022-11-18T08:37:34;0.60;;;0.60;;
69410;SDS011;56604;48.652;9.194;2022-11-18T08:40:00;0.60;;;0.60;;
69410;SDS011;56604;48.652;9.194;2022-11-18T08:42:25;1.07;;;0.97;;
69410;SDS011;56604;48.652;9.194;2022-11-18T08:44:51;8.13;;;0.87;;
69410;SDS011;56604;48.652;9.194;2022-11-18T08:47:16;1.17;;;0.80;;
69410;SDS011;56604;48.652;9.194;2022-11-18T08:49:42;2.47;;;0.90;;
69410;SDS011;56604;48.652;9.194;2022-11-18T08:52:08;1.63;;;0.70;;
69410;SDS011;56604;48.652;9.194;2022-11-18T08:54:33;0.67;;;0.67;;
69410;SDS011;56604;48.652;9.194;2022-11-18T08:56:59;0.77;;;0.77;;
69410;SDS011;56604;48.652;9.194;2022-11-18T08:59:25;0.60;;;0.60;;
69410;SDS011;56604;48.652;9.194;2022-11-18T09:01:50;0.70;;;0.70;;
69410;SDS011;56604;48.652;9.194;2022-11-18T09:04:15;0.50;;;0.50;;
69410;SDS011;56604;48.652;9.194;2022-11-18T09:06:41;0.70;;;0.70;;
69410;SDS011;56604;48.652;9.194;2022-11-18T09:09:06;1.27;;;0.70;;
69410;SDS011;56604;48.652;9.194;2022-11-18T09:11:33;0.60;;;0.60;;
69410;SDS011;56604;48.652;9.194;2022-11-18T09:13:59;0.80;;;0.80;;
69410;SDS011;56604;48.652;9.194;2022-11-18T09:16:27;1.00;;;1.00;;
69410;SDS011;56604;48.652;9.194;2022-11-18T09:18:54;1.57;;;0.80;;
69410;SDS011;56604;48.652;9.194;2022-11-18T09:21:21;0.60;;;0.60;;
69410;SDS011;56604;48.652;9.194;2022-11-18T09:23:46;0.60;;;0.60;;
69410;SDS011;56604;48.652;9.194;2022-11-18T09:26:13;0.60;;;0.50;;
69410;SDS011;56604;48.652;9.194;2022-11-18T09:28:39;0.50;;;0.50;;
69410;SDS011;56604;48.652;9.194;2022-11-18T09:31:06;0.90;;;0.90;;
69410;SDS011;56604;48.652;9.194;2022-11-18T09:33:35;0.97;;;0.97;;
69410;SDS011;56604;48.652;9.194;2022-11-18T09:36:02;1.23;;;1.23;;
69410;SDS011;56604;48.652;9.194;2022-11-18T09:38:28;1.27;;;1.27;;
69410;SDS011;56604;48.652;9.194;2022-11-18T09:43:28;1.30;;;1.30;;
69410;SDS011;56604;48.652;9.194;2022-11-18T09:46:13;0.97;;;0.97;;
69410;SDS011;56604;48.652;9.194;2022-11-18T09:48:48;1.00;;;1.00;;
69410;SDS011;56604;48.652;9.194;2022-11-18T09:51:34;0.60;;;0.60;;
69410;SDS011;56604;48.652;9.194;2022-11-18T09:54:03;0.90;;;0.90;;
69410;SDS011;56604;48.652;9.194;2022-11-18T09:56:28;0.83;;;0.83;;
69410;SDS011;56604;48.652;9.194;2022-11-18T09:58:54;1.70;;;0.70;;
69410;SDS011;56604;48.652;9.194;2022-11-18T10:01:20;8.13;;;0.90;;
69410;SDS011;56604;48.652;9.194;2022-11-18T10:03:46;1.43;;;1.13;;
69410;SDS011;56604;48.652;9.194;2022-11-18T10:06:15;4.40;;;1.27;;
69410;SDS011;56604;48.652;9.194;2022-11-18T10:11:25;1.13;;;1.00;;
69410;SDS011;56604;48.652;9.194;2022-11-18T10:19:07;2.63;;;1.07;;
69410;SDS011;56604;48.652;9.194;2022-11-18T10:24:25;1.53;;;0.97;;
69410;SDS011;56604;48.652;9.194;2022-11-18T10:26:58;1.00;;;1.00;;
69410;SDS011;56604;48.652;9.194;2022-11-18T10:29:24;1.23;;;1.13;;
69410;SDS011;56604;48.652;9.194;2022-11-18T10:34:24;1.00;;;1.00;;
69410;SDS011;56604;48.652;9.194;2022-11-18T10:39:32;5.43;;;1.10;;
69410;SDS011;56604;48.652;9.194;2022-11-18T10:42:04;2.60;;;0.83;;
69410;SDS011;56604;48.652;9.194;2022-11-18T10:44:32;4.87;;;1.27;;
69410;SDS011;56604;48.652;9.194;2022-11-18T10:47:13;1.13;;;1.13;;
69410;SDS011;56604;48.652;9.194;2022-11-18T10:50:00;1.30;;;1.30;;
69410;SDS011;56604;48.652;9.194;2022-11-18T10:52:52;2.40;;;1.10;;
69410;SDS011;56604;48.652;9.194;2022-11-18T10:55:22;1.30;;;1.20;;
69410;SDS011;56604;48.652;9.194;2022-11-18T10:57:55;2.97;;;1.00;;
69410;SDS011;56604;48.652;9.194;2022-11-18T11:00:40;1.30;;;0.90;;
69410;SDS011;56604;48.652;9.194;2022-11-18T11:03:14;2.07;;;1.20;;
69410;SDS011;56604;48.652;9.194;2022-11-18T11:08:49;4.17;;;1.30;;
69410;SDS011;56604;48.652;9.194;2022-11-18T11:11:53;1.37;;;1.07;;
69410;SDS011;56604;48.652;9.194;2022-11-18T11:14:21;1.33;;;1.20;;
69410;SDS011;56604;48.652;9.194;2022-11-18T11:16:57;3.70;;;1.20;;
69410;SDS011;56604;48.652;9.194;2022-11-18T11:19:49;0.90;;;0.90;;
69410;SDS011;56604;48.652;9.194;2022-11-18T11:22:14;0.80;;;0.80;;
69410;SDS011;56604;48.652;9.194;2022-11-18T11:24:40;1.00;;;1.00;;
69410;SDS011;56604;48.652;9.194;2022-11-18T11:41:14;0.90;;;0.90;;
69410;SDS011;56604;48.652;9.194;2022-11-18T11:49:48;0.90;;;0.90;;
69410;SDS011;56604;48.652;9.194;2022-11-18T11:52:21;0.70;;;0.70;;
69410;SDS011;56604;48.652;9.194;2022-11-18T11:55:03;0.80;;;0.80;;
69410;SDS011;56604;48.652;9.194;2022-11-18T12:00:32;0.80;;;0.80;;
69410;SDS011;56604;48.652;9.194;2022-11-18T12:05:54;0.83;;;0.80;;
69410;SDS011;56604;48.652;9.194;2022-11-18T12:08:20;3.90;;;1.67;;
69410;SDS011;56604;48.652;9.194;2022-11-18T12:14:39;1.27;;;0.80;;
69410;SDS011;56604;48.652;9.194;2022-11-18T12:19:38;4.30;;;0.80;;
69410;SDS011;56604;48.652;9.194;2022-11-18T12:22:04;0.80;;;0.80;;
69410;SDS011;56604;48.652;9.194;2022-11-18T12:24:37;2.10;;;0.90;;
69410;SDS011;56604;48.652;9.194;2022-11-18T12:31:58;2.03;;;1.03;;
69410;SDS011;56604;48.652;9.194;2022-11-18T12:34:37;1.27;;;1.03;;
69410;SDS011;56604;48.652;9.194;2022-11-18T12:39:47;3.40;;;1.40;;
69410;SDS011;56604;48.652;9.194;2022-11-18T12:42:43;2.70;;;1.30;;
69410;SDS011;56604;48.652;9.194;2022-11-18T12:50:56;4.63;;;1.07;;
69410;SDS011;56604;48.652;9.194;2022-11-18T12:53:28;0.90;;;0.90;;
69410;SDS011;56604;48.652;9.194;2022-11-18T12:55:57;3.33;;;1.20;;
69410;SDS011;56604;48.652;9.194;2022-11-18T12:58:23;1.53;;;1.10;;
69410;SDS011;56604;48.652;9.194;2022-11-18T13:00:49;1.40;;;1.30;;
69410;SDS011;56604;48.652;9.194;2022-11-18T13:03:22;1.13;;;1.00;;
69410;SDS011;56604;48.652;9.194;2022-11-18T13:05:49;1.73;;;1.43;;
69410;SDS011;56604;48.652;9.194;2022-11-18T13:08:22;1.00;;;1.00;;
69410;SDS011;56604;48.652;9.194;2022-11-18T13:10:50;3.60;;;1.67;;
69410;SDS011;56604;48.652;9.194;2022-11-18T13:13:37;1.90;;;1.40;;
69410;SDS011;56604;48.652;9.194;2022-11-18T13:16:19;1.77;;;1.33;;
69410;SDS011;56604;48.652;9.194;2022-11-18T13:19:06;1.17;;;1.17;;
69410;SDS011;56604;48.652;9.194;2022-11-18T13:21:31;2.20;;;1.27;;
69410;SDS011;56604;48.652;9.194;2022-11-18T13:24:16;1.10;;;1.10;;
69410;SDS011;56604;48.652;9.194;2022-11-18T13:26:43;1.00;;;1.00;;
69410;SDS011;56604;48.652;9.194;2022-11-18T13:31:43;1.60;;;1.10;;
69410;SDS011;56604;48.652;9.194;2022-11-18T13:34:18;2.90;;;1.93;;
69410;SDS011;56604;48.652;9.194;2022-11-18T13:36:46;4.13;;;1.30;;
69410;SDS011;56604;48.652;9.194;2022-11-18T13:39:23;1.50;;;1.10;;
69410;SDS011;56604;48.652;9.194;2022-11-18T13:42:36;0.90;;;0.90;;
69410;SDS011;56604;48.652;9.194;2022-11-18T13:45:00;0.87;;;0.87;;
69410;SDS011;56604;48.652;9.194;2022-11-18T13:47:38;0.90;;;0.90;;
69410;SDS011;56604;48.652;9.194;2022-11-18T13:52:37;0.90;;;0.87;;
69410;SDS011;56604;48.652;9.194;2022-11-18T13:55:08;4.10;;;1.10;;
69410;SDS011;56604;48.652;9.194;2022-11-18T13:57:40;2.70;;;0.90;;
69410;SDS011;56604;48.652;9.194;2022-11-18T14:02:38;0.93;;;0.93;;
69410;SDS011;56604;48.652;9.194;2022-11-18T14:05:15;0.90;;;0.90;;
69410;SDS011;56604;48.652;9.194;2022-11-18T14:07:59;1.60;;;1.00;;
69410;SDS011;56604;48.652;9.194;2022-11-18T14:10:30;2.00;;;0.80;;
69410;SDS011;56604;48.652;9.194;2022-11-18T14:12:58;0.80;;;0.80;;
69410;SDS011;56604;48.652;9.194;2022-11-18T14:17:56;1.00;;;1.00;;
69410;SDS011;56604;48.652;9.194;2022-11-18T14:20:24;3.70;;;0.70;;
69410;SDS011;56604;48.652;9.194;2022-11-18T14:22:58;1.03;;;0.97;;
69410;SDS011;56604;48.652;9.194;2022-11-18T14:25:34;7.70;;;0.90;;
69410;SDS011;56604;48.652;9.194;2022-11-18T14:28:20;2.00;;;0.80;;
69410;SDS011;56604;48.652;9.194;2022-11-18T14:30:57;1.90;;;1.33;;
69410;SDS011;56604;48.652;9.194;2022-11-18T14:33:41;1.90;;;1.03;;
69410;SDS011;56604;48.652;9.194;2022-11-18T14:36:26;1.27;;;1.10;;
69410;SDS011;56604;48.652;9.194;2022-11-18T14:38:51;2.00;;;1.10;;
69410;SDS011;56604;48.652;9.194;2022-11-18T14:41:17;9.93;;;0.90;;
69410;SDS011;56604;48.652;9.194;2022-11-18T14:44:03;2.37;;;1.20;;
69410;SDS011;56604;48.652;9.194;2022-11-18T14:46:29;2.30;;;1.10;;
69410;SDS011;56604;48.652;9.194;2022-11-18T14:48:55;1.00;;;1.00;;
69410;SDS011;56604;48.652;9.194;2022-11-18T14:51:21;1.20;;;1.10;;
69410;SDS011;56604;48.652;9.194;2022-11-18T14:53:46;1.97;;;1.30;;
69410;SDS011;56604;48.652;9.194;2022-11-18T14:58:54;0.90;;;0.90;;
69410;SDS011;56604;48.652;9.194;2022-11-18T15:01:19;4.77;;;1.03;;
69410;SDS011;56604;48.652;9.194;2022-11-18T15:03:45;0.83;;;0.80;;
69410;SDS011;56604;48.652;9.194;2022-11-18T15:06:15;1.27;;;1.17;;
69410;SDS011;56604;48.652;9.194;2022-11-18T15:08:42;6.77;;;1.70;;
69410;SDS011;56604;48.652;9.194;2022-11-18T15:11:09;1.50;;;1.40;;
69410;SDS011;56604;48.652;9.194;2022-11-18T15:13:35;2.93;;;1.43;;
69410;SDS011;56604;48.652;9.194;2022-11-18T15:16:01;10.70;;;2.43;;
69410;SDS011;56604;48.652;9.194;2022-11-18T15:18:35;2.87;;;1.77;;
69410;SDS011;56604;48.652;9.194;2022-11-18T15:21:00;2.60;;;2.00;;
69410;SDS011;56604;48.652;9.194;2022-11-18T15:23:25;4.50;;;1.73;;
69410;SDS011;56604;48.652;9.194;2022-11-18T15:25:51;1.30;;;1.30;;
69410;SDS011;56604;48.652;9.194;2022-11-18T15:28:16;2.00;;;1.80;;
69410;SDS011;56604;48.652;9.194;2022-11-18T15:30:41;1.60;;;1.60;;
69410;SDS011;56604;48.652;9.194;2022-11-18T15:33:06;1.43;;;1.33;;
69410;SDS011;56604;48.652;9.194;2022-11-18T15:35:32;2.67;;;1.53;;
69410;SDS011;56604;48.652;9.194;2022-11-18T15:37:57;10.10;;;1.93;;
69410;SDS011;56604;48.652;9.194;2022-11-18T15:40:22;1.43;;;1.40;;
69410;SDS011;56604;48.652;9.194;2022-11-18T15:42:48;1.93;;;1.40;;
69410;SDS011;56604;48.652;9.194;2022-11-18T15:45:13;1.47;;;1.43;;
69410;SDS011;56604;48.652;9.194;2022-11-18T15:47:39;8.13;;;1.80;;
69410;SDS011;56604;48.652;9.194;2022-11-18T15:50:04;5.13;;;1.77;;
69410;SDS011;56604;48.652;9.194;2022-11-18T15:52:30;2.17;;;2.00;;
69410;SDS011;56604;48.652;9.194;2022-11-18T15:54:55;2.60;;;1.70;;
69410;SDS011;56604;48.652;9.194;2022-11-18T15:57:20;1.97;;;1.87;;
69410;SDS011;56604;48.652;9.194;2022-11-18T15:59:46;4.63;;;2.20;;
69410;SDS011;56604;48.652;9.194;2022-11-18T16:02:11;1.67;;;1.40;;
69410;SDS011;56604;48.652;9.194;2022-11-18T16:04:36;3.27;;;1.50;;
69410;SDS011;56604;48.652;9.194;2022-11-18T16:07:02;6.90;;;1.73;;
69410;SDS011;56604;48.652;9.194;2022-11-18T16:09:28;3.70;;;1.70;;
69410;SDS011;56604;48.652;9.194;2022-11-18T16:12:13;5.07;;;1.90;;
69410;SDS011;56604;48.652;9.194;2022-11-18T16:14:58;1.57;;;1.47;;
69410;SDS011;56604;48.652;9.194;2022-11-18T16:17:42;3.43;;;1.90;;
69410;SDS011;56604;48.652;9.194;2022-11-18T16:20:08;3.83;;;2.07;;
69410;SDS011;56604;48.652;9.194;2022-11-18T16:22:34;4.13;;;2.20;;
69410;SDS011;56604;48.652;9.194;2022-11-18T16:24:59;3.57;;;2.30;;
69410;SDS011;56604;48.652;9.194;2022-11-18T16:27:24;3.30;;;2.40;;
69410;SDS011;56604;48.652;9.194;2022-11-18T16:29:50;2.87;;;2.30;;
69410;SDS011;56604;48.652;9.194;2022-11-18T16:32:15;4.47;;;3.47;;
69410;SDS011;56604;48.652;9.194;2022-11-18T16:34:40;7.70;;;3.30;;
69410;SDS011;56604;48.652;9.194;2022-11-18T16:37:06;14.97;;;8.00;;
69410;SDS011;56604;48.652;9.194;2022-11-18T16:39:32;17.70;;;9.70;;
69410;SDS011;56604;48.652;9.194;2022-11-18T16:41:58;13.23;;;9.70;;
69410;SDS011;56604;48.652;9.194;2022-11-18T16:44:25;7.23;;;6.50;;
69410;SDS011;56604;48.652;9.194;2022-11-18T16:46:52;4.93;;;3.80;;
69410;SDS011;56604;48.652;9.194;2022-11-18T16:49:19;4.13;;;2.93;;
69410;SDS011;56604;48.652;9.194;2022-11-18T16:51:47;2.30;;;2.20;;
69410;SDS011;56604;48.652;9.194;2022-11-18T16:54:21;2.00;;;1.90;;
69410;SDS011;56604;48.652;9.194;2022-11-18T16:56:51;2.60;;;2.40;;